sensor_id;sensor_type;location;lat;lon;timestamp;P1;durP1;ratioP1;P2;durP2;ratioP2
20283;SDS011;10301;50.832;4.080;2023-06-22T00:01:05;8.07;;;4.68;;
20283;SDS011;10301;50.832;4.080;2023-06-22T00:03:31;7.05;;;4.45;;
20283;SDS011;10301;50.832;4.080;2023-06-22T00:05:57;8.70;;;4.90;;
20283;SDS011;10301;50.832;4.080;2023-06-22T00:08:22;8.70;;;4.53;;
20283;SDS011;10301;50.832;4.080;2023-06-22T00:10:48;8.20;;;3.92;;
20283;SDS011;10301;50.832;4.080;2023-06-22T00:13:14;10.13;;;4.82;;
20283;SDS011;10301;50.832;4.080;2023-06-22T00:15:41;9.10;;;4.53;;
20283;SDS011;10301;50.832;4.080;2023-06-22T00:18:07;9.20;;;4.57;;
20283;SDS011;10301;50.832;4.080;2023-06-22T00:20:33;9.52;;;5.10;;
20283;SDS011;10301;50.832;4.080;2023-06-22T00:23:02;13.15;;;6.05;;
20283;SDS011;10301;50.832;4.080;2023-06-22T00:25:35;9.07;;;5.22;;
20283;SDS011;10301;50.832;4.080;2023-06-22T00:28:02;10.45;;;5.53;;
20283;SDS011;10301;50.832;4.080;2023-06-22T00:30:29;9.27;;;5.38;;
20283;SDS011;10301;50.832;4.080;2023-06-22T00:32:55;11.20;;;6.32;;
20283;SDS011;10301;50.832;4.080;2023-06-22T00:35:20;10.70;;;5.28;;
20283;SDS011;10301;50.832;4.080;2023-06-22T00:37:46;12.27;;;6.00;;
20283;SDS011;10301;50.832;4.080;2023-06-22T00:40:12;9.45;;;5.43;;
20283;SDS011;10301;50.832;4.080;2023-06-22T00:42:38;11.80;;;5.70;;
20283;SDS011;10301;50.832;4.080;2023-06-22T00:45:04;9.38;;;5.32;;
20283;SDS011;10301;50.832;4.080;2023-06-22T00:47:31;10.65;;;5.70;;
20283;SDS011;10301;50.832;4.080;2023-06-22T00:49:57;11.55;;;6.22;;
20283;SDS011;10301;50.832;4.080;2023-06-22T00:52:23;13.88;;;5.72;;
20283;SDS011;10301;50.832;4.080;2023-06-22T00:54:54;12.10;;;6.40;;
20283;SDS011;10301;50.832;4.080;2023-06-22T00:57:21;12.40;;;6.40;;
20283;SDS011;10301;50.832;4.080;2023-06-22T00:59:53;12.00;;;6.50;;
20283;SDS011;10301;50.832;4.080;2023-06-22T01:02:19;9.85;;;5.88;;
20283;SDS011;10301;50.832;4.080;2023-06-22T01:04:44;10.05;;;6.25;;
20283;SDS011;10301;50.832;4.080;2023-06-22T01:07:13;11.25;;;6.93;;
20283;SDS011;10301;50.832;4.080;2023-06-22T01:10:12;12.82;;;6.03;;
20283;SDS011;10301;50.832;4.080;2023-06-22T01:12:43;9.70;;;6.10;;
20283;SDS011;10301;50.832;4.080;2023-06-22T01:15:18;10.88;;;5.63;;
20283;SDS011;10301;50.832;4.080;2023-06-22T01:17:48;8.52;;;5.50;;
20283;SDS011;10301;50.832;4.080;2023-06-22T01:20:17;12.13;;;6.05;;
20283;SDS011;10301;50.832;4.080;2023-06-22T01:23:20;12.00;;;5.78;;
20283;SDS011;10301;50.832;4.080;2023-06-22T01:25:53;13.52;;;6.35;;
20283;SDS011;10301;50.832;4.080;2023-06-22T01:28:43;8.43;;;5.72;;
20283;SDS011;10301;50.832;4.080;2023-06-22T01:31:10;11.73;;;5.95;;
20283;SDS011;10301;50.832;4.080;2023-06-22T01:33:41;12.00;;;5.65;;
20283;SDS011;10301;50.832;4.080;2023-06-22T01:36:09;10.40;;;6.25;;
20283;SDS011;10301;50.832;4.080;2023-06-22T01:38:36;9.93;;;6.55;;
20283;SDS011;10301;50.832;4.080;2023-06-22T01:41:03;10.00;;;5.28;;
20283;SDS011;10301;50.832;4.080;2023-06-22T01:43:29;10.80;;;6.05;;
20283;SDS011;10301;50.832;4.080;2023-06-22T01:45:56;12.32;;;6.72;;
20283;SDS011;10301;50.832;4.080;2023-06-22T01:48:23;13.85;;;6.10;;
20283;SDS011;10301;50.832;4.080;2023-06-22T01:50:50;9.38;;;5.93;;
20283;SDS011;10301;50.832;4.080;2023-06-22T01:53:18;11.32;;;5.45;;
20283;SDS011;10301;50.832;4.080;2023-06-22T01:55:45;12.73;;;6.00;;
20283;SDS011;10301;50.832;4.080;2023-06-22T01:58:10;11.40;;;6.30;;
20283;SDS011;10301;50.832;4.080;2023-06-22T02:00:37;11.48;;;6.07;;
20283;SDS011;10301;50.832;4.080;2023-06-22T02:05:38;12.13;;;6.90;;
20283;SDS011;10301;50.832;4.080;2023-06-22T02:08:22;10.15;;;5.97;;
20283;SDS011;10301;50.832;4.080;2023-06-22T02:10:51;10.15;;;6.22;;
20283;SDS011;10301;50.832;4.080;2023-06-22T02:13:19;10.88;;;6.28;;
20283;SDS011;10301;50.832;4.080;2023-06-22T02:15:45;10.23;;;6.15;;
20283;SDS011;10301;50.832;4.080;2023-06-22T02:18:13;13.00;;;6.15;;
20283;SDS011;10301;50.832;4.080;2023-06-22T02:20:39;12.70;;;6.13;;
20283;SDS011;10301;50.832;4.080;2023-06-22T02:23:05;14.45;;;6.57;;
20283;SDS011;10301;50.832;4.080;2023-06-22T02:25:32;9.13;;;5.53;;
20283;SDS011;10301;50.832;4.080;2023-06-22T02:27:58;10.05;;;5.93;;
20283;SDS011;10301;50.832;4.080;2023-06-22T02:30:24;10.20;;;6.20;;
20283;SDS011;10301;50.832;4.080;2023-06-22T02:32:49;11.00;;;5.80;;
20283;SDS011;10301;50.832;4.080;2023-06-22T02:35:24;10.00;;;6.07;;
20283;SDS011;10301;50.832;4.080;2023-06-22T02:37:57;9.73;;;6.18;;
20283;SDS011;10301;50.832;4.080;2023-06-22T02:40:24;12.13;;;6.35;;
20283;SDS011;10301;50.832;4.080;2023-06-22T02:42:50;8.98;;;5.68;;
20283;SDS011;10301;50.832;4.080;2023-06-22T02:45:16;13.50;;;6.55;;
20283;SDS011;10301;50.832;4.080;2023-06-22T02:47:41;11.25;;;5.78;;
20283;SDS011;10301;50.832;4.080;2023-06-22T02:50:07;12.88;;;6.90;;
20283;SDS011;10301;50.832;4.080;2023-06-22T02:52:33;12.18;;;6.65;;
20283;SDS011;10301;50.832;4.080;2023-06-22T02:54:59;10.98;;;6.05;;
20283;SDS011;10301;50.832;4.080;2023-06-22T02:57:25;13.05;;;6.45;;
20283;SDS011;10301;50.832;4.080;2023-06-22T02:59:50;9.65;;;6.32;;
20283;SDS011;10301;50.832;4.080;2023-06-22T03:02:16;11.77;;;6.07;;
20283;SDS011;10301;50.832;4.080;2023-06-22T03:04:42;10.50;;;6.15;;
20283;SDS011;10301;50.832;4.080;2023-06-22T03:07:08;11.27;;;6.13;;
20283;SDS011;10301;50.832;4.080;2023-06-22T03:09:34;13.27;;;6.72;;
20283;SDS011;10301;50.832;4.080;2023-06-22T03:11:59;11.57;;;6.70;;
20283;SDS011;10301;50.832;4.080;2023-06-22T03:14:27;10.55;;;5.95;;
20283;SDS011;10301;50.832;4.080;2023-06-22T03:16:52;11.20;;;6.72;;
20283;SDS011;10301;50.832;4.080;2023-06-22T03:19:18;11.15;;;6.13;;
20283;SDS011;10301;50.832;4.080;2023-06-22T03:21:45;9.27;;;6.30;;
20283;SDS011;10301;50.832;4.080;2023-06-22T03:24:10;12.68;;;6.43;;
20283;SDS011;10301;50.832;4.080;2023-06-22T03:26:36;12.20;;;6.70;;
20283;SDS011;10301;50.832;4.080;2023-06-22T03:29:01;11.98;;;6.47;;
20283;SDS011;10301;50.832;4.080;2023-06-22T03:31:28;11.80;;;6.60;;
20283;SDS011;10301;50.832;4.080;2023-06-22T03:33:53;10.27;;;5.78;;
20283;SDS011;10301;50.832;4.080;2023-06-22T03:36:19;10.40;;;5.90;;
20283;SDS011;10301;50.832;4.080;2023-06-22T03:38:45;9.63;;;5.97;;
20283;SDS011;10301;50.832;4.080;2023-06-22T03:41:11;11.07;;;6.30;;
20283;SDS011;10301;50.832;4.080;2023-06-22T03:43:37;13.13;;;6.03;;
20283;SDS011;10301;50.832;4.080;2023-06-22T03:46:03;12.30;;;6.85;;
20283;SDS011;10301;50.832;4.080;2023-06-22T03:48:29;15.95;;;7.13;;
20283;SDS011;10301;50.832;4.080;2023-06-22T03:50:54;15.48;;;6.95;;
20283;SDS011;10301;50.832;4.080;2023-06-22T03:53:20;13.68;;;6.80;;
20283;SDS011;10301;50.832;4.080;2023-06-22T03:55:49;12.27;;;7.38;;
20283;SDS011;10301;50.832;4.080;2023-06-22T03:58:16;11.68;;;6.57;;
20283;SDS011;10301;50.832;4.080;2023-06-22T04:00:49;12.73;;;6.32;;
20283;SDS011;10301;50.832;4.080;2023-06-22T04:03:16;16.75;;;6.55;;
20283;SDS011;10301;50.832;4.080;2023-06-22T04:05:43;12.18;;;6.88;;
20283;SDS011;10301;50.832;4.080;2023-06-22T04:08:09;11.57;;;6.65;;
20283;SDS011;10301;50.832;4.080;2023-06-22T04:10:35;10.68;;;5.97;;
20283;SDS011;10301;50.832;4.080;2023-06-22T04:13:01;12.57;;;6.32;;
20283;SDS011;10301;50.832;4.080;2023-06-22T04:15:27;15.77;;;6.63;;
20283;SDS011;10301;50.832;4.080;2023-06-22T04:17:54;10.55;;;6.28;;
20283;SDS011;10301;50.832;4.080;2023-06-22T04:20:20;13.73;;;6.30;;
20283;SDS011;10301;50.832;4.080;2023-06-22T04:22:46;13.18;;;7.28;;
20283;SDS011;10301;50.832;4.080;2023-06-22T04:25:12;13.27;;;7.72;;
20283;SDS011;10301;50.832;4.080;2023-06-22T04:27:37;12.63;;;8.38;;
20283;SDS011;10301;50.832;4.080;2023-06-22T04:30:05;13.40;;;7.82;;
20283;SDS011;10301;50.832;4.080;2023-06-22T04:32:33;11.70;;;7.32;;
20283;SDS011;10301;50.832;4.080;2023-06-22T04:35:02;12.77;;;7.78;;
20283;SDS011;10301;50.832;4.080;2023-06-22T04:37:30;16.77;;;8.38;;
20283;SDS011;10301;50.832;4.080;2023-06-22T04:39:56;14.75;;;8.57;;
20283;SDS011;10301;50.832;4.080;2023-06-22T04:42:21;14.70;;;8.55;;
20283;SDS011;10301;50.832;4.080;2023-06-22T04:44:47;12.90;;;7.57;;
20283;SDS011;10301;50.832;4.080;2023-06-22T04:47:13;11.68;;;7.35;;
20283;SDS011;10301;50.832;4.080;2023-06-22T04:49:39;12.55;;;7.55;;
20283;SDS011;10301;50.832;4.080;2023-06-22T04:52:08;13.27;;;7.32;;
20283;SDS011;10301;50.832;4.080;2023-06-22T04:54:36;13.60;;;7.40;;
20283;SDS011;10301;50.832;4.080;2023-06-22T04:57:04;12.52;;;7.75;;
20283;SDS011;10301;50.832;4.080;2023-06-22T04:59:34;14.00;;;7.28;;
20283;SDS011;10301;50.832;4.080;2023-06-22T05:02:01;13.88;;;7.63;;
20283;SDS011;10301;50.832;4.080;2023-06-22T05:04:28;13.40;;;8.48;;
20283;SDS011;10301;50.832;4.080;2023-06-22T05:06:58;12.55;;;7.45;;
20283;SDS011;10301;50.832;4.080;2023-06-22T05:09:25;14.93;;;8.57;;
20283;SDS011;10301;50.832;4.080;2023-06-22T05:11:51;14.85;;;7.80;;
20283;SDS011;10301;50.832;4.080;2023-06-22T05:14:17;17.00;;;11.95;;
20283;SDS011;10301;50.832;4.080;2023-06-22T05:16:43;14.75;;;8.40;;
20283;SDS011;10301;50.832;4.080;2023-06-22T05:19:09;14.23;;;7.95;;
20283;SDS011;10301;50.832;4.080;2023-06-22T05:21:35;16.20;;;8.77;;
20283;SDS011;10301;50.832;4.080;2023-06-22T05:24:01;14.77;;;8.82;;
20283;SDS011;10301;50.832;4.080;2023-06-22T05:26:28;12.63;;;7.90;;
20283;SDS011;10301;50.832;4.080;2023-06-22T05:28:55;15.13;;;8.13;;
20283;SDS011;10301;50.832;4.080;2023-06-22T05:31:21;15.98;;;8.40;;
20283;SDS011;10301;50.832;4.080;2023-06-22T05:33:47;14.50;;;8.80;;
20283;SDS011;10301;50.832;4.080;2023-06-22T05:36:14;15.05;;;9.27;;
20283;SDS011;10301;50.832;4.080;2023-06-22T05:38:40;16.30;;;9.45;;
20283;SDS011;10301;50.832;4.080;2023-06-22T05:41:06;14.52;;;8.60;;
20283;SDS011;10301;50.832;4.080;2023-06-22T05:43:33;14.52;;;8.77;;
20283;SDS011;10301;50.832;4.080;2023-06-22T05:45:59;77.53;;;43.25;;
20283;SDS011;10301;50.832;4.080;2023-06-22T05:48:26;14.23;;;9.85;;
20283;SDS011;10301;50.832;4.080;2023-06-22T05:50:52;17.15;;;9.48;;
20283;SDS011;10301;50.832;4.080;2023-06-22T05:53:18;15.13;;;9.55;;
20283;SDS011;10301;50.832;4.080;2023-06-22T05:55:44;12.38;;;8.98;;
20283;SDS011;10301;50.832;4.080;2023-06-22T05:58:10;12.85;;;8.50;;
20283;SDS011;10301;50.832;4.080;2023-06-22T06:00:35;14.60;;;9.85;;
20283;SDS011;10301;50.832;4.080;2023-06-22T06:03:01;16.85;;;9.95;;
20283;SDS011;10301;50.832;4.080;2023-06-22T06:05:31;15.45;;;9.85;;
20283;SDS011;10301;50.832;4.080;2023-06-22T06:07:59;18.13;;;9.75;;
20283;SDS011;10301;50.832;4.080;2023-06-22T06:10:25;17.67;;;10.55;;
20283;SDS011;10301;50.832;4.080;2023-06-22T06:12:52;16.92;;;10.25;;
20283;SDS011;10301;50.832;4.080;2023-06-22T06:15:17;19.58;;;10.70;;
20283;SDS011;10301;50.832;4.080;2023-06-22T06:17:46;16.05;;;11.18;;
20283;SDS011;10301;50.832;4.080;2023-06-22T06:20:23;16.35;;;10.93;;
20283;SDS011;10301;50.832;4.080;2023-06-22T06:22:50;19.00;;;11.50;;
20283;SDS011;10301;50.832;4.080;2023-06-22T06:25:16;16.83;;;11.63;;
20283;SDS011;10301;50.832;4.080;2023-06-22T06:27:43;17.75;;;12.05;;
20283;SDS011;10301;50.832;4.080;2023-06-22T06:30:14;18.73;;;11.95;;
20283;SDS011;10301;50.832;4.080;2023-06-22T06:32:41;17.52;;;11.57;;
20283;SDS011;10301;50.832;4.080;2023-06-22T06:35:10;17.75;;;12.07;;
20283;SDS011;10301;50.832;4.080;2023-06-22T06:37:37;18.67;;;11.75;;
20283;SDS011;10301;50.832;4.080;2023-06-22T06:40:04;16.73;;;12.13;;
20283;SDS011;10301;50.832;4.080;2023-06-22T06:42:42;17.33;;;12.18;;
20283;SDS011;10301;50.832;4.080;2023-06-22T06:45:10;20.30;;;11.85;;
20283;SDS011;10301;50.832;4.080;2023-06-22T06:47:58;23.77;;;12.77;;
20283;SDS011;10301;50.832;4.080;2023-06-22T06:50:23;18.65;;;13.10;;
20283;SDS011;10301;50.832;4.080;2023-06-22T06:52:49;18.85;;;13.07;;
20283;SDS011;10301;50.832;4.080;2023-06-22T06:55:17;18.80;;;12.10;;
20283;SDS011;10301;50.832;4.080;2023-06-22T06:57:44;19.80;;;12.88;;
20283;SDS011;10301;50.832;4.080;2023-06-22T07:00:13;19.90;;;13.68;;
20283;SDS011;10301;50.832;4.080;2023-06-22T07:02:40;19.35;;;14.57;;
20283;SDS011;10301;50.832;4.080;2023-06-22T07:05:07;19.55;;;13.43;;
20283;SDS011;10301;50.832;4.080;2023-06-22T07:07:34;21.73;;;14.30;;
20283;SDS011;10301;50.832;4.080;2023-06-22T07:10:00;24.00;;;14.55;;
20283;SDS011;10301;50.832;4.080;2023-06-22T07:12:26;19.52;;;14.15;;
20283;SDS011;10301;50.832;4.080;2023-06-22T07:14:52;20.95;;;14.55;;
20283;SDS011;10301;50.832;4.080;2023-06-22T07:17:18;17.20;;;14.02;;
20283;SDS011;10301;50.832;4.080;2023-06-22T07:19:44;19.20;;;14.55;;
20283;SDS011;10301;50.832;4.080;2023-06-22T07:22:10;22.83;;;14.43;;
20283;SDS011;10301;50.832;4.080;2023-06-22T07:24:36;22.40;;;14.75;;
20283;SDS011;10301;50.832;4.080;2023-06-22T07:27:02;24.05;;;16.17;;
20283;SDS011;10301;50.832;4.080;2023-06-22T07:29:28;21.02;;;14.88;;
20283;SDS011;10301;50.832;4.080;2023-06-22T07:31:54;23.45;;;16.95;;
20283;SDS011;10301;50.832;4.080;2023-06-22T07:34:21;23.35;;;15.32;;
20283;SDS011;10301;50.832;4.080;2023-06-22T07:36:47;25.27;;;16.77;;
20283;SDS011;10301;50.832;4.080;2023-06-22T07:39:13;26.02;;;16.92;;
20283;SDS011;10301;50.832;4.080;2023-06-22T07:41:39;21.83;;;16.42;;
20283;SDS011;10301;50.832;4.080;2023-06-22T07:44:05;23.70;;;16.58;;
20283;SDS011;10301;50.832;4.080;2023-06-22T07:46:31;24.05;;;16.58;;
20283;SDS011;10301;50.832;4.080;2023-06-22T07:48:57;20.83;;;16.00;;
20283;SDS011;10301;50.832;4.080;2023-06-22T07:51:24;21.95;;;15.85;;
20283;SDS011;10301;50.832;4.080;2023-06-22T07:53:50;24.65;;;16.90;;
20283;SDS011;10301;50.832;4.080;2023-06-22T07:56:16;22.33;;;16.48;;
20283;SDS011;10301;50.832;4.080;2023-06-22T07:58:45;23.33;;;16.33;;
20283;SDS011;10301;50.832;4.080;2023-06-22T08:01:12;20.98;;;15.75;;
20283;SDS011;10301;50.832;4.080;2023-06-22T08:03:41;23.92;;;16.98;;
20283;SDS011;10301;50.832;4.080;2023-06-22T08:06:07;22.70;;;17.15;;
20283;SDS011;10301;50.832;4.080;2023-06-22T08:08:34;24.17;;;18.17;;
20283;SDS011;10301;50.832;4.080;2023-06-22T08:11:00;25.63;;;18.58;;
20283;SDS011;10301;50.832;4.080;2023-06-22T08:13:26;23.52;;;17.00;;
20283;SDS011;10301;50.832;4.080;2023-06-22T08:15:52;26.27;;;18.23;;
20283;SDS011;10301;50.832;4.080;2023-06-22T08:18:17;24.48;;;18.25;;
20283;SDS011;10301;50.832;4.080;2023-06-22T08:20:43;23.73;;;18.02;;
20283;SDS011;10301;50.832;4.080;2023-06-22T08:23:09;23.35;;;18.50;;
20283;SDS011;10301;50.832;4.080;2023-06-22T08:25:34;23.27;;;16.38;;
20283;SDS011;10301;50.832;4.080;2023-06-22T08:28:03;22.00;;;17.75;;
20283;SDS011;10301;50.832;4.080;2023-06-22T08:30:29;21.92;;;16.48;;
20283;SDS011;10301;50.832;4.080;2023-06-22T08:32:55;23.40;;;17.10;;
20283;SDS011;10301;50.832;4.080;2023-06-22T08:35:24;23.20;;;17.73;;
20283;SDS011;10301;50.832;4.080;2023-06-22T08:37:50;24.08;;;18.45;;
20283;SDS011;10301;50.832;4.080;2023-06-22T08:40:17;21.85;;;18.70;;
20283;SDS011;10301;50.832;4.080;2023-06-22T08:42:44;25.70;;;18.52;;
20283;SDS011;10301;50.832;4.080;2023-06-22T08:45:11;24.80;;;18.63;;
20283;SDS011;10301;50.832;4.080;2023-06-22T08:47:37;25.00;;;19.02;;
20283;SDS011;10301;50.832;4.080;2023-06-22T08:50:03;24.35;;;19.08;;
20283;SDS011;10301;50.832;4.080;2023-06-22T08:52:30;24.90;;;18.88;;
20283;SDS011;10301;50.832;4.080;2023-06-22T08:54:56;24.00;;;18.27;;
20283;SDS011;10301;50.832;4.080;2023-06-22T08:57:23;25.20;;;20.35;;
20283;SDS011;10301;50.832;4.080;2023-06-22T08:59:49;19.98;;;17.88;;
20283;SDS011;10301;50.832;4.080;2023-06-22T09:02:17;25.00;;;19.20;;
20283;SDS011;10301;50.832;4.080;2023-06-22T09:04:44;24.40;;;19.05;;
20283;SDS011;10301;50.832;4.080;2023-06-22T09:07:13;27.60;;;19.13;;
20283;SDS011;10301;50.832;4.080;2023-06-22T09:09:39;28.90;;;19.85;;
20283;SDS011;10301;50.832;4.080;2023-06-22T09:12:05;27.17;;;19.80;;
20283;SDS011;10301;50.832;4.080;2023-06-22T09:14:31;26.17;;;19.95;;
20283;SDS011;10301;50.832;4.080;2023-06-22T09:16:57;26.13;;;20.08;;
20283;SDS011;10301;50.832;4.080;2023-06-22T09:19:22;27.17;;;18.85;;
20283;SDS011;10301;50.832;4.080;2023-06-22T09:21:48;23.00;;;17.77;;
20283;SDS011;10301;50.832;4.080;2023-06-22T09:24:14;25.17;;;19.52;;
20283;SDS011;10301;50.832;4.080;2023-06-22T09:26:39;22.10;;;18.75;;
20283;SDS011;10301;50.832;4.080;2023-06-22T09:29:05;22.90;;;18.98;;
20283;SDS011;10301;50.832;4.080;2023-06-22T09:31:31;22.98;;;18.80;;
20283;SDS011;10301;50.832;4.080;2023-06-22T09:33:56;25.48;;;18.63;;
20283;SDS011;10301;50.832;4.080;2023-06-22T09:36:22;23.15;;;18.48;;
20283;SDS011;10301;50.832;4.080;2023-06-22T09:38:48;25.33;;;18.75;;
20283;SDS011;10301;50.832;4.080;2023-06-22T09:41:20;27.05;;;19.80;;
20283;SDS011;10301;50.832;4.080;2023-06-22T09:43:45;27.15;;;20.17;;
20283;SDS011;10301;50.832;4.080;2023-06-22T09:46:13;26.70;;;20.10;;
20283;SDS011;10301;50.832;4.080;2023-06-22T09:48:40;26.08;;;21.05;;
20283;SDS011;10301;50.832;4.080;2023-06-22T09:51:05;34.85;;;23.05;;
20283;SDS011;10301;50.832;4.080;2023-06-22T09:53:31;32.58;;;23.92;;
20283;SDS011;10301;50.832;4.080;2023-06-22T09:55:57;37.05;;;24.35;;
20283;SDS011;10301;50.832;4.080;2023-06-22T09:58:22;32.78;;;23.75;;
20283;SDS011;10301;50.832;4.080;2023-06-22T10:00:48;30.70;;;22.60;;
20283;SDS011;10301;50.832;4.080;2023-06-22T10:03:14;28.27;;;22.73;;
20283;SDS011;10301;50.832;4.080;2023-06-22T10:05:39;29.27;;;22.98;;
20283;SDS011;10301;50.832;4.080;2023-06-22T10:08:05;27.67;;;22.10;;
20283;SDS011;10301;50.832;4.080;2023-06-22T10:10:32;22.67;;;19.13;;
20283;SDS011;10301;50.832;4.080;2023-06-22T10:13:02;23.15;;;14.57;;
20283;SDS011;10301;50.832;4.080;2023-06-22T10:15:34;17.20;;;10.30;;
20283;SDS011;10301;50.832;4.080;2023-06-22T10:17:59;17.08;;;11.43;;
20283;SDS011;10301;50.832;4.080;2023-06-22T10:20:25;20.95;;;13.85;;
20283;SDS011;10301;50.832;4.080;2023-06-22T10:22:51;26.08;;;17.90;;
20283;SDS011;10301;50.832;4.080;2023-06-22T10:25:17;26.10;;;19.60;;
20283;SDS011;10301;50.832;4.080;2023-06-22T10:27:42;28.02;;;20.90;;
20283;SDS011;10301;50.832;4.080;2023-06-22T10:30:10;29.92;;;23.17;;
20283;SDS011;10301;50.832;4.080;2023-06-22T10:32:40;31.85;;;24.30;;
20283;SDS011;10301;50.832;4.080;2023-06-22T10:35:07;31.95;;;25.95;;
20283;SDS011;10301;50.832;4.080;2023-06-22T10:37:35;32.35;;;24.48;;
20283;SDS011;10301;50.832;4.080;2023-06-22T10:40:01;27.77;;;20.60;;
20283;SDS011;10301;50.832;4.080;2023-06-22T10:42:28;24.48;;;18.20;;
20283;SDS011;10301;50.832;4.080;2023-06-22T10:44:54;26.15;;;17.40;;
20283;SDS011;10301;50.832;4.080;2023-06-22T10:47:20;24.52;;;17.80;;
20283;SDS011;10301;50.832;4.080;2023-06-22T10:49:45;24.73;;;17.15;;
20283;SDS011;10301;50.832;4.080;2023-06-22T10:52:11;25.25;;;17.38;;
20283;SDS011;10301;50.832;4.080;2023-06-22T10:54:37;26.33;;;19.02;;
20283;SDS011;10301;50.832;4.080;2023-06-22T10:57:03;24.30;;;17.88;;
20283;SDS011;10301;50.832;4.080;2023-06-22T10:59:29;26.73;;;19.92;;
20283;SDS011;10301;50.832;4.080;2023-06-22T11:01:55;28.20;;;21.42;;
20283;SDS011;10301;50.832;4.080;2023-06-22T11:04:21;28.65;;;20.85;;
20283;SDS011;10301;50.832;4.080;2023-06-22T11:06:48;32.35;;;22.73;;
20283;SDS011;10301;50.832;4.080;2023-06-22T11:09:14;33.25;;;24.15;;
20283;SDS011;10301;50.832;4.080;2023-06-22T11:11:45;30.75;;;23.02;;
20283;SDS011;10301;50.832;4.080;2023-06-22T11:14:14;32.70;;;25.80;;
20283;SDS011;10301;50.832;4.080;2023-06-22T11:16:40;32.50;;;24.00;;
20283;SDS011;10301;50.832;4.080;2023-06-22T11:19:06;37.95;;;27.08;;
20283;SDS011;10301;50.832;4.080;2023-06-22T11:21:32;32.33;;;25.67;;
20283;SDS011;10301;50.832;4.080;2023-06-22T11:23:58;36.25;;;25.88;;
20283;SDS011;10301;50.832;4.080;2023-06-22T11:26:24;34.85;;;26.58;;
20283;SDS011;10301;50.832;4.080;2023-06-22T11:28:52;35.63;;;26.02;;
20283;SDS011;10301;50.832;4.080;2023-06-22T11:31:18;37.15;;;27.83;;
20283;SDS011;10301;50.832;4.080;2023-06-22T11:33:44;37.35;;;28.27;;
20283;SDS011;10301;50.832;4.080;2023-06-22T11:36:13;39.97;;;29.63;;
20283;SDS011;10301;50.832;4.080;2023-06-22T11:38:39;41.03;;;30.35;;
20283;SDS011;10301;50.832;4.080;2023-06-22T11:41:08;38.55;;;29.98;;
20283;SDS011;10301;50.832;4.080;2023-06-22T11:43:34;43.67;;;31.00;;
20283;SDS011;10301;50.832;4.080;2023-06-22T11:46:01;42.85;;;31.45;;
20283;SDS011;10301;50.832;4.080;2023-06-22T11:48:28;39.50;;;30.92;;
20283;SDS011;10301;50.832;4.080;2023-06-22T11:50:54;40.10;;;30.95;;
20283;SDS011;10301;50.832;4.080;2023-06-22T11:53:24;39.97;;;30.42;;
20283;SDS011;10301;50.832;4.080;2023-06-22T11:55:51;40.80;;;31.33;;
20283;SDS011;10301;50.832;4.080;2023-06-22T11:58:17;38.75;;;30.23;;
20283;SDS011;10301;50.832;4.080;2023-06-22T12:00:43;45.30;;;31.77;;
20283;SDS011;10301;50.832;4.080;2023-06-22T12:03:10;47.85;;;33.15;;
20283;SDS011;10301;50.832;4.080;2023-06-22T12:05:36;44.22;;;33.17;;
20283;SDS011;10301;50.832;4.080;2023-06-22T12:08:03;45.97;;;33.45;;
20283;SDS011;10301;50.832;4.080;2023-06-22T12:10:28;48.95;;;33.97;;
20283;SDS011;10301;50.832;4.080;2023-06-22T12:12:54;48.05;;;35.03;;
20283;SDS011;10301;50.832;4.080;2023-06-22T12:15:20;52.30;;;38.03;;
20283;SDS011;10301;50.832;4.080;2023-06-22T12:17:45;50.60;;;37.20;;
20283;SDS011;10301;50.832;4.080;2023-06-22T12:20:13;51.42;;;39.22;;
20283;SDS011;10301;50.832;4.080;2023-06-22T12:22:38;52.05;;;37.42;;
20283;SDS011;10301;50.832;4.080;2023-06-22T12:25:06;53.90;;;39.45;;
20283;SDS011;10301;50.832;4.080;2023-06-22T12:27:32;54.17;;;37.60;;
20283;SDS011;10301;50.832;4.080;2023-06-22T12:29:59;50.83;;;37.00;;
20283;SDS011;10301;50.832;4.080;2023-06-22T12:32:24;48.25;;;36.15;;
20283;SDS011;10301;50.832;4.080;2023-06-22T12:34:50;51.10;;;36.17;;
20283;SDS011;10301;50.832;4.080;2023-06-22T12:37:16;48.78;;;34.78;;
20283;SDS011;10301;50.832;4.080;2023-06-22T12:39:41;45.53;;;34.38;;
20283;SDS011;10301;50.832;4.080;2023-06-22T12:42:07;47.35;;;35.88;;
20283;SDS011;10301;50.832;4.080;2023-06-22T12:44:37;46.53;;;35.03;;
20283;SDS011;10301;50.832;4.080;2023-06-22T12:47:03;47.22;;;34.38;;
20283;SDS011;10301;50.832;4.080;2023-06-22T12:49:29;48.22;;;36.13;;
20283;SDS011;10301;50.832;4.080;2023-06-22T12:51:55;49.15;;;34.10;;
20283;SDS011;10301;50.832;4.080;2023-06-22T12:54:21;46.40;;;31.33;;
20283;SDS011;10301;50.832;4.080;2023-06-22T12:56:46;44.63;;;33.40;;
20283;SDS011;10301;50.832;4.080;2023-06-22T12:59:12;50.28;;;33.53;;
20283;SDS011;10301;50.832;4.080;2023-06-22T13:01:38;46.80;;;33.33;;
20283;SDS011;10301;50.832;4.080;2023-06-22T13:04:03;55.42;;;38.50;;
20283;SDS011;10301;50.832;4.080;2023-06-22T13:06:30;48.85;;;36.15;;
20283;SDS011;10301;50.832;4.080;2023-06-22T13:08:56;51.95;;;36.00;;
20283;SDS011;10301;50.832;4.080;2023-06-22T13:11:21;59.60;;;38.08;;
20283;SDS011;10301;50.832;4.080;2023-06-22T13:13:47;60.28;;;38.45;;
20283;SDS011;10301;50.832;4.080;2023-06-22T13:16:12;53.65;;;37.17;;
20283;SDS011;10301;50.832;4.080;2023-06-22T13:18:38;52.53;;;36.20;;
20283;SDS011;10301;50.832;4.080;2023-06-22T13:21:04;59.70;;;38.50;;
20283;SDS011;10301;50.832;4.080;2023-06-22T13:23:30;57.22;;;38.70;;
20283;SDS011;10301;50.832;4.080;2023-06-22T13:25:55;55.05;;;37.97;;
20283;SDS011;10301;50.832;4.080;2023-06-22T13:28:22;51.97;;;36.00;;
20283;SDS011;10301;50.832;4.080;2023-06-22T13:30:48;57.10;;;37.28;;
20283;SDS011;10301;50.832;4.080;2023-06-22T13:33:13;56.47;;;37.65;;
20283;SDS011;10301;50.832;4.080;2023-06-22T13:35:39;56.65;;;36.65;;
20283;SDS011;10301;50.832;4.080;2023-06-22T13:38:07;61.85;;;38.72;;
20283;SDS011;10301;50.832;4.080;2023-06-22T13:40:37;62.55;;;38.97;;
20283;SDS011;10301;50.832;4.080;2023-06-22T13:43:03;62.28;;;39.60;;
20283;SDS011;10301;50.832;4.080;2023-06-22T13:45:29;59.35;;;41.05;;
20283;SDS011;10301;50.832;4.080;2023-06-22T13:47:55;62.17;;;43.70;;
20283;SDS011;10301;50.832;4.080;2023-06-22T13:50:21;63.83;;;41.15;;
20283;SDS011;10301;50.832;4.080;2023-06-22T13:52:46;59.22;;;43.10;;
20283;SDS011;10301;50.832;4.080;2023-06-22T13:55:12;62.50;;;40.90;;
20283;SDS011;10301;50.832;4.080;2023-06-22T13:57:39;60.65;;;39.28;;
20283;SDS011;10301;50.832;4.080;2023-06-22T14:00:05;65.22;;;41.72;;
20283;SDS011;10301;50.832;4.080;2023-06-22T14:02:33;63.10;;;41.20;;
20283;SDS011;10301;50.832;4.080;2023-06-22T14:04:59;65.75;;;43.92;;
20283;SDS011;10301;50.832;4.080;2023-06-22T14:07:24;66.70;;;45.47;;
20283;SDS011;10301;50.832;4.080;2023-06-22T14:09:50;65.88;;;44.10;;
20283;SDS011;10301;50.832;4.080;2023-06-22T14:12:16;68.32;;;45.38;;
20283;SDS011;10301;50.832;4.080;2023-06-22T14:14:45;72.18;;;43.95;;
20283;SDS011;10301;50.832;4.080;2023-06-22T14:17:11;69.88;;;44.80;;
20283;SDS011;10301;50.832;4.080;2023-06-22T14:19:37;65.90;;;45.35;;
20283;SDS011;10301;50.832;4.080;2023-06-22T14:22:03;69.68;;;44.28;;
20283;SDS011;10301;50.832;4.080;2023-06-22T14:24:28;70.82;;;44.35;;
20283;SDS011;10301;50.832;4.080;2023-06-22T14:26:54;65.20;;;42.17;;
20283;SDS011;10301;50.832;4.080;2023-06-22T14:29:21;72.20;;;43.33;;